Terminal Aerodrome Forecast
Issued by NWS Lake Charles, LA

Home | Current Version | Previous Version | Text Only | Print | Product List | Glossary On
Versions: 1 2 3 4 5 6 7 8 9 10 11 12 13 14 15 16 17 18 19 20
000
FTUS44 KLCH 231726
TAFLFT
TAF
KLFT 231726Z 2318/2418 06004KT P6SM BKN019 OVC040
     FM232200 33006KT P6SM BKN050
     FM240300 31010G15KT 5SM -TSRA OVC007CB
     FM240700 33012KT P6SM OVC010
     FM241300 33014G20KT P6SM BKN050=

USA.gov is the U.S. government's official web portal to all federal, state and local government web resources and services.